sensor_id;sensor_type;location;lat;lon;timestamp;P1;durP1;ratioP1;P2;durP2;ratioP2
5341;SDS011;2693;48.822;9.062;2024-03-17T00:00:20;9.43;;;5.93;;
5341;SDS011;2693;48.822;9.062;2024-03-17T00:02:46;9.20;;;5.68;;
5341;SDS011;2693;48.822;9.062;2024-03-17T00:05:12;6.82;;;5.53;;
5341;SDS011;2693;48.822;9.062;2024-03-17T00:07:38;9.52;;;5.30;;
5341;SDS011;2693;48.822;9.062;2024-03-17T00:10:03;7.20;;;5.40;;
5341;SDS011;2693;48.822;9.062;2024-03-17T00:12:29;7.18;;;5.30;;
5341;SDS011;2693;48.822;9.062;2024-03-17T00:14:55;8.18;;;5.53;;
5341;SDS011;2693;48.822;9.062;2024-03-17T00:17:20;7.43;;;5.15;;
5341;SDS011;2693;48.822;9.062;2024-03-17T00:19:46;6.97;;;4.97;;
5341;SDS011;2693;48.822;9.062;2024-03-17T00:22:11;7.70;;;4.57;;
5341;SDS011;2693;48.822;9.062;2024-03-17T00:24:39;6.05;;;4.63;;
5341;SDS011;2693;48.822;9.062;2024-03-17T00:27:05;8.43;;;4.68;;
5341;SDS011;2693;48.822;9.062;2024-03-17T00:29:31;7.05;;;4.97;;
5341;SDS011;2693;48.822;9.062;2024-03-17T00:31:57;6.88;;;4.90;;
5341;SDS011;2693;48.822;9.062;2024-03-17T00:34:23;8.63;;;5.05;;
5341;SDS011;2693;48.822;9.062;2024-03-17T00:36:52;7.38;;;5.30;;
5341;SDS011;2693;48.822;9.062;2024-03-17T00:39:17;8.02;;;5.00;;
5341;SDS011;2693;48.822;9.062;2024-03-17T00:41:43;8.23;;;5.07;;
5341;SDS011;2693;48.822;9.062;2024-03-17T00:44:09;6.03;;;4.38;;
5341;SDS011;2693;48.822;9.062;2024-03-17T00:46:34;7.97;;;4.85;;
5341;SDS011;2693;48.822;9.062;2024-03-17T00:48:59;8.43;;;5.10;;
5341;SDS011;2693;48.822;9.062;2024-03-17T00:51:25;7.93;;;4.97;;
5341;SDS011;2693;48.822;9.062;2024-03-17T00:53:51;7.22;;;4.35;;
5341;SDS011;2693;48.822;9.062;2024-03-17T00:56:16;6.20;;;4.88;;
5341;SDS011;2693;48.822;9.062;2024-03-17T00:58:41;8.65;;;4.68;;
5341;SDS011;2693;48.822;9.062;2024-03-17T01:01:07;8.43;;;5.28;;
5341;SDS011;2693;48.822;9.062;2024-03-17T01:03:33;6.20;;;4.80;;
5341;SDS011;2693;48.822;9.062;2024-03-17T01:05:58;6.93;;;4.28;;
5341;SDS011;2693;48.822;9.062;2024-03-17T01:08:23;6.18;;;4.30;;
5341;SDS011;2693;48.822;9.062;2024-03-17T01:10:49;6.55;;;4.55;;
5341;SDS011;2693;48.822;9.062;2024-03-17T01:13:15;6.65;;;4.68;;
5341;SDS011;2693;48.822;9.062;2024-03-17T01:15:40;9.15;;;4.82;;
5341;SDS011;2693;48.822;9.062;2024-03-17T01:18:06;6.07;;;4.25;;
5341;SDS011;2693;48.822;9.062;2024-03-17T01:20:32;7.88;;;4.80;;
5341;SDS011;2693;48.822;9.062;2024-03-17T01:22:59;5.72;;;4.22;;
5341;SDS011;2693;48.822;9.062;2024-03-17T01:25:24;7.70;;;5.40;;
5341;SDS011;2693;48.822;9.062;2024-03-17T01:27:54;5.90;;;4.15;;
5341;SDS011;2693;48.822;9.062;2024-03-17T01:30:20;7.60;;;5.15;;
5341;SDS011;2693;48.822;9.062;2024-03-17T01:32:45;6.35;;;4.50;;
5341;SDS011;2693;48.822;9.062;2024-03-17T01:35:11;5.45;;;4.13;;
5341;SDS011;2693;48.822;9.062;2024-03-17T01:37:37;6.95;;;4.63;;
5341;SDS011;2693;48.822;9.062;2024-03-17T01:40:02;7.38;;;4.70;;
5341;SDS011;2693;48.822;9.062;2024-03-17T01:42:33;7.75;;;4.85;;
5341;SDS011;2693;48.822;9.062;2024-03-17T01:44:58;9.45;;;5.22;;
5341;SDS011;2693;48.822;9.062;2024-03-17T01:47:24;7.78;;;4.72;;
5341;SDS011;2693;48.822;9.062;2024-03-17T01:49:49;6.05;;;4.38;;
5341;SDS011;2693;48.822;9.062;2024-03-17T01:52:16;7.18;;;5.65;;
5341;SDS011;2693;48.822;9.062;2024-03-17T01:54:42;8.10;;;5.88;;
5341;SDS011;2693;48.822;9.062;2024-03-17T01:57:08;8.55;;;5.45;;
5341;SDS011;2693;48.822;9.062;2024-03-17T01:59:34;7.22;;;5.07;;
5341;SDS011;2693;48.822;9.062;2024-03-17T02:02:00;8.38;;;5.65;;
5341;SDS011;2693;48.822;9.062;2024-03-17T02:04:25;9.20;;;5.03;;
5341;SDS011;2693;48.822;9.062;2024-03-17T02:06:51;5.72;;;4.47;;
5341;SDS011;2693;48.822;9.062;2024-03-17T02:09:16;8.18;;;4.90;;
5341;SDS011;2693;48.822;9.062;2024-03-17T02:11:43;6.82;;;5.22;;
5341;SDS011;2693;48.822;9.062;2024-03-17T02:14:09;7.82;;;4.57;;
5341;SDS011;2693;48.822;9.062;2024-03-17T02:16:34;9.85;;;4.75;;
5341;SDS011;2693;48.822;9.062;2024-03-17T02:18:59;7.53;;;4.88;;
5341;SDS011;2693;48.822;9.062;2024-03-17T02:21:25;8.07;;;4.53;;
5341;SDS011;2693;48.822;9.062;2024-03-17T02:23:55;6.88;;;4.15;;
5341;SDS011;2693;48.822;9.062;2024-03-17T02:26:21;6.60;;;4.40;;
5341;SDS011;2693;48.822;9.062;2024-03-17T02:28:47;7.07;;;4.40;;
5341;SDS011;2693;48.822;9.062;2024-03-17T02:31:13;7.20;;;4.63;;
5341;SDS011;2693;48.822;9.062;2024-03-17T02:33:40;6.82;;;4.40;;
5341;SDS011;2693;48.822;9.062;2024-03-17T02:36:06;6.82;;;4.53;;
5341;SDS011;2693;48.822;9.062;2024-03-17T02:38:32;6.57;;;4.65;;
5341;SDS011;2693;48.822;9.062;2024-03-17T02:41:17;8.77;;;4.15;;
5341;SDS011;2693;48.822;9.062;2024-03-17T02:43:43;7.28;;;4.50;;
5341;SDS011;2693;48.822;9.062;2024-03-17T02:46:10;6.97;;;5.07;;
5341;SDS011;2693;48.822;9.062;2024-03-17T02:48:37;7.45;;;4.70;;
5341;SDS011;2693;48.822;9.062;2024-03-17T02:51:09;6.53;;;4.35;;
5341;SDS011;2693;48.822;9.062;2024-03-17T02:53:35;9.07;;;4.82;;
5341;SDS011;2693;48.822;9.062;2024-03-17T02:56:00;7.63;;;4.95;;
5341;SDS011;2693;48.822;9.062;2024-03-17T02:58:25;7.35;;;4.82;;
5341;SDS011;2693;48.822;9.062;2024-03-17T03:00:51;8.35;;;5.22;;
5341;SDS011;2693;48.822;9.062;2024-03-17T03:03:16;7.20;;;4.60;;
5341;SDS011;2693;48.822;9.062;2024-03-17T03:05:41;9.07;;;5.28;;
5341;SDS011;2693;48.822;9.062;2024-03-17T03:08:07;7.55;;;4.97;;
5341;SDS011;2693;48.822;9.062;2024-03-17T03:10:33;8.73;;;4.63;;
5341;SDS011;2693;48.822;9.062;2024-03-17T03:13:00;6.85;;;5.03;;
5341;SDS011;2693;48.822;9.062;2024-03-17T03:15:26;10.43;;;5.50;;
5341;SDS011;2693;48.822;9.062;2024-03-17T03:17:51;6.32;;;4.85;;
5341;SDS011;2693;48.822;9.062;2024-03-17T03:20:16;10.95;;;5.53;;
5341;SDS011;2693;48.822;9.062;2024-03-17T03:22:42;8.48;;;5.00;;
5341;SDS011;2693;48.822;9.062;2024-03-17T03:25:08;8.23;;;4.88;;
5341;SDS011;2693;48.822;9.062;2024-03-17T03:27:33;7.70;;;4.72;;
5341;SDS011;2693;48.822;9.062;2024-03-17T03:29:59;8.07;;;5.00;;
5341;SDS011;2693;48.822;9.062;2024-03-17T03:32:25;8.77;;;4.80;;
5341;SDS011;2693;48.822;9.062;2024-03-17T03:34:50;8.65;;;4.90;;
5341;SDS011;2693;48.822;9.062;2024-03-17T03:37:15;11.75;;;5.32;;
5341;SDS011;2693;48.822;9.062;2024-03-17T03:39:41;7.03;;;4.70;;
5341;SDS011;2693;48.822;9.062;2024-03-17T03:42:06;7.25;;;4.50;;
5341;SDS011;2693;48.822;9.062;2024-03-17T03:44:32;8.40;;;4.80;;
5341;SDS011;2693;48.822;9.062;2024-03-17T03:46:58;7.43;;;4.35;;
5341;SDS011;2693;48.822;9.062;2024-03-17T03:49:25;6.40;;;4.22;;
5341;SDS011;2693;48.822;9.062;2024-03-17T03:51:51;6.50;;;4.60;;
5341;SDS011;2693;48.822;9.062;2024-03-17T03:54:16;8.77;;;4.57;;
5341;SDS011;2693;48.822;9.062;2024-03-17T03:56:42;9.27;;;4.85;;
5341;SDS011;2693;48.822;9.062;2024-03-17T03:59:07;9.82;;;4.95;;
5341;SDS011;2693;48.822;9.062;2024-03-17T04:01:32;8.93;;;5.50;;
5341;SDS011;2693;48.822;9.062;2024-03-17T04:03:58;6.72;;;4.88;;
5341;SDS011;2693;48.822;9.062;2024-03-17T04:06:23;7.97;;;5.40;;
5341;SDS011;2693;48.822;9.062;2024-03-17T04:08:49;8.00;;;5.70;;
5341;SDS011;2693;48.822;9.062;2024-03-17T04:11:14;9.88;;;5.85;;
5341;SDS011;2693;48.822;9.062;2024-03-17T04:13:39;8.50;;;5.63;;
5341;SDS011;2693;48.822;9.062;2024-03-17T04:16:06;11.23;;;6.25;;
5341;SDS011;2693;48.822;9.062;2024-03-17T04:18:32;8.15;;;5.45;;
5341;SDS011;2693;48.822;9.062;2024-03-17T04:21:03;9.15;;;5.70;;
5341;SDS011;2693;48.822;9.062;2024-03-17T04:23:29;10.07;;;5.72;;
5341;SDS011;2693;48.822;9.062;2024-03-17T04:25:57;11.55;;;6.20;;
5341;SDS011;2693;48.822;9.062;2024-03-17T04:28:22;9.77;;;6.03;;
5341;SDS011;2693;48.822;9.062;2024-03-17T04:30:48;8.98;;;5.55;;
5341;SDS011;2693;48.822;9.062;2024-03-17T04:33:14;9.65;;;5.30;;
5341;SDS011;2693;48.822;9.062;2024-03-17T04:35:39;10.13;;;6.18;;
5341;SDS011;2693;48.822;9.062;2024-03-17T04:38:05;12.25;;;5.95;;
5341;SDS011;2693;48.822;9.062;2024-03-17T04:40:34;8.70;;;4.90;;
5341;SDS011;2693;48.822;9.062;2024-03-17T04:43:00;10.77;;;5.55;;
5341;SDS011;2693;48.822;9.062;2024-03-17T04:45:26;7.85;;;5.25;;
5341;SDS011;2693;48.822;9.062;2024-03-17T04:47:51;8.40;;;4.93;;
5341;SDS011;2693;48.822;9.062;2024-03-17T04:50:17;8.45;;;4.82;;
5341;SDS011;2693;48.822;9.062;2024-03-17T04:52:42;7.35;;;4.85;;
5341;SDS011;2693;48.822;9.062;2024-03-17T04:55:07;7.72;;;5.10;;
5341;SDS011;2693;48.822;9.062;2024-03-17T04:57:33;7.50;;;4.57;;
5341;SDS011;2693;48.822;9.062;2024-03-17T04:59:58;7.15;;;4.85;;
5341;SDS011;2693;48.822;9.062;2024-03-17T05:02:23;7.50;;;4.82;;
5341;SDS011;2693;48.822;9.062;2024-03-17T05:04:50;8.13;;;5.25;;
5341;SDS011;2693;48.822;9.062;2024-03-17T05:07:15;10.25;;;4.93;;
5341;SDS011;2693;48.822;9.062;2024-03-17T05:09:41;8.65;;;5.28;;
5341;SDS011;2693;48.822;9.062;2024-03-17T05:12:08;10.02;;;5.50;;
5341;SDS011;2693;48.822;9.062;2024-03-17T05:14:33;8.48;;;5.95;;
5341;SDS011;2693;48.822;9.062;2024-03-17T05:16:59;7.53;;;4.90;;
5341;SDS011;2693;48.822;9.062;2024-03-17T05:19:24;7.45;;;5.22;;
5341;SDS011;2693;48.822;9.062;2024-03-17T05:21:50;9.05;;;5.72;;
5341;SDS011;2693;48.822;9.062;2024-03-17T05:24:15;9.35;;;6.00;;
5341;SDS011;2693;48.822;9.062;2024-03-17T05:26:40;7.90;;;4.95;;
5341;SDS011;2693;48.822;9.062;2024-03-17T05:29:07;8.27;;;5.78;;
5341;SDS011;2693;48.822;9.062;2024-03-17T05:31:33;7.78;;;5.57;;
5341;SDS011;2693;48.822;9.062;2024-03-17T05:33:58;9.43;;;5.50;;
5341;SDS011;2693;48.822;9.062;2024-03-17T05:36:23;12.90;;;5.90;;
5341;SDS011;2693;48.822;9.062;2024-03-17T05:38:49;9.25;;;5.75;;
5341;SDS011;2693;48.822;9.062;2024-03-17T05:41:14;10.18;;;5.57;;
5341;SDS011;2693;48.822;9.062;2024-03-17T05:43:39;11.10;;;6.70;;
5341;SDS011;2693;48.822;9.062;2024-03-17T05:46:05;12.63;;;6.85;;
5341;SDS011;2693;48.822;9.062;2024-03-17T05:48:33;12.95;;;6.97;;
5341;SDS011;2693;48.822;9.062;2024-03-17T05:51:02;12.68;;;6.78;;
5341;SDS011;2693;48.822;9.062;2024-03-17T05:53:28;13.02;;;6.43;;
5341;SDS011;2693;48.822;9.062;2024-03-17T05:55:53;9.07;;;6.25;;
5341;SDS011;2693;48.822;9.062;2024-03-17T05:58:20;9.15;;;5.88;;
5341;SDS011;2693;48.822;9.062;2024-03-17T06:00:45;10.02;;;6.00;;
5341;SDS011;2693;48.822;9.062;2024-03-17T06:03:11;9.80;;;6.32;;
5341;SDS011;2693;48.822;9.062;2024-03-17T06:05:37;10.38;;;5.88;;
5341;SDS011;2693;48.822;9.062;2024-03-17T06:08:03;11.15;;;6.30;;
5341;SDS011;2693;48.822;9.062;2024-03-17T06:10:30;9.68;;;5.85;;
5341;SDS011;2693;48.822;9.062;2024-03-17T06:12:56;13.07;;;7.30;;
5341;SDS011;2693;48.822;9.062;2024-03-17T06:15:22;14.95;;;8.45;;
5341;SDS011;2693;48.822;9.062;2024-03-17T06:17:48;12.77;;;8.23;;
5341;SDS011;2693;48.822;9.062;2024-03-17T06:20:16;12.77;;;7.95;;
5341;SDS011;2693;48.822;9.062;2024-03-17T06:22:42;10.23;;;6.43;;
5341;SDS011;2693;48.822;9.062;2024-03-17T06:25:07;6.53;;;5.15;;
5341;SDS011;2693;48.822;9.062;2024-03-17T06:27:33;7.18;;;4.43;;
5341;SDS011;2693;48.822;9.062;2024-03-17T06:30:01;5.75;;;3.35;;
5341;SDS011;2693;48.822;9.062;2024-03-17T06:32:29;6.13;;;3.95;;
5341;SDS011;2693;48.822;9.062;2024-03-17T06:34:56;5.80;;;3.90;;
5341;SDS011;2693;48.822;9.062;2024-03-17T06:37:22;3.63;;;3.05;;
5341;SDS011;2693;48.822;9.062;2024-03-17T06:39:48;4.85;;;3.67;;
5341;SDS011;2693;48.822;9.062;2024-03-17T06:42:13;5.40;;;3.80;;
5341;SDS011;2693;48.822;9.062;2024-03-17T06:44:39;4.95;;;3.70;;
5341;SDS011;2693;48.822;9.062;2024-03-17T06:47:04;6.97;;;4.00;;
5341;SDS011;2693;48.822;9.062;2024-03-17T06:49:30;4.93;;;3.80;;
5341;SDS011;2693;48.822;9.062;2024-03-17T06:51:56;5.78;;;3.88;;
5341;SDS011;2693;48.822;9.062;2024-03-17T06:54:21;4.47;;;3.70;;
5341;SDS011;2693;48.822;9.062;2024-03-17T06:56:47;5.18;;;4.28;;
5341;SDS011;2693;48.822;9.062;2024-03-17T06:59:12;4.78;;;4.38;;
5341;SDS011;2693;48.822;9.062;2024-03-17T07:01:37;5.18;;;4.20;;
5341;SDS011;2693;48.822;9.062;2024-03-17T07:04:03;6.18;;;4.28;;
5341;SDS011;2693;48.822;9.062;2024-03-17T07:06:28;6.68;;;4.80;;
5341;SDS011;2693;48.822;9.062;2024-03-17T07:08:54;5.55;;;3.97;;
5341;SDS011;2693;48.822;9.062;2024-03-17T07:11:20;7.38;;;4.68;;
5341;SDS011;2693;48.822;9.062;2024-03-17T07:13:48;4.70;;;3.92;;
5341;SDS011;2693;48.822;9.062;2024-03-17T07:16:16;7.47;;;4.25;;
5341;SDS011;2693;48.822;9.062;2024-03-17T07:18:43;5.15;;;4.03;;
5341;SDS011;2693;48.822;9.062;2024-03-17T07:21:08;5.07;;;4.15;;
5341;SDS011;2693;48.822;9.062;2024-03-17T07:23:35;5.30;;;4.10;;
5341;SDS011;2693;48.822;9.062;2024-03-17T07:26:01;5.22;;;4.00;;
5341;SDS011;2693;48.822;9.062;2024-03-17T07:28:27;4.45;;;3.72;;
5341;SDS011;2693;48.822;9.062;2024-03-17T07:30:53;4.35;;;3.95;;
5341;SDS011;2693;48.822;9.062;2024-03-17T07:33:19;6.55;;;4.35;;
5341;SDS011;2693;48.822;9.062;2024-03-17T07:35:53;6.10;;;4.80;;
5341;SDS011;2693;48.822;9.062;2024-03-17T07:38:25;6.75;;;4.38;;
5341;SDS011;2693;48.822;9.062;2024-03-17T07:41:07;5.25;;;4.32;;
5341;SDS011;2693;48.822;9.062;2024-03-17T07:43:34;5.43;;;4.18;;
5341;SDS011;2693;48.822;9.062;2024-03-17T07:48:32;6.18;;;4.30;;
5341;SDS011;2693;48.822;9.062;2024-03-17T07:51:00;5.40;;;4.38;;
5341;SDS011;2693;48.822;9.062;2024-03-17T07:53:30;4.90;;;4.40;;
5341;SDS011;2693;48.822;9.062;2024-03-17T07:56:11;4.93;;;4.20;;
5341;SDS011;2693;48.822;9.062;2024-03-17T07:58:39;7.07;;;4.47;;
5341;SDS011;2693;48.822;9.062;2024-03-17T08:01:05;5.80;;;4.90;;
5341;SDS011;2693;48.822;9.062;2024-03-17T08:03:32;6.60;;;4.95;;
5341;SDS011;2693;48.822;9.062;2024-03-17T08:05:59;6.03;;;4.70;;
5341;SDS011;2693;48.822;9.062;2024-03-17T08:08:25;6.15;;;4.85;;
5341;SDS011;2693;48.822;9.062;2024-03-17T08:10:50;5.82;;;4.75;;
5341;SDS011;2693;48.822;9.062;2024-03-17T08:13:17;6.13;;;5.45;;
5341;SDS011;2693;48.822;9.062;2024-03-17T08:15:43;6.28;;;4.93;;
5341;SDS011;2693;48.822;9.062;2024-03-17T08:18:10;5.57;;;4.90;;
5341;SDS011;2693;48.822;9.062;2024-03-17T08:20:37;6.25;;;5.10;;
5341;SDS011;2693;48.822;9.062;2024-03-17T08:23:06;8.85;;;5.20;;
5341;SDS011;2693;48.822;9.062;2024-03-17T08:25:32;9.23;;;5.38;;
5341;SDS011;2693;48.822;9.062;2024-03-17T08:27:58;5.90;;;4.88;;
5341;SDS011;2693;48.822;9.062;2024-03-17T08:30:23;8.73;;;5.15;;
5341;SDS011;2693;48.822;9.062;2024-03-17T08:32:49;7.18;;;5.25;;
5341;SDS011;2693;48.822;9.062;2024-03-17T08:35:14;6.75;;;5.30;;
5341;SDS011;2693;48.822;9.062;2024-03-17T08:37:40;9.10;;;5.38;;
5341;SDS011;2693;48.822;9.062;2024-03-17T08:40:05;7.40;;;5.68;;
5341;SDS011;2693;48.822;9.062;2024-03-17T08:42:31;6.82;;;5.43;;
5341;SDS011;2693;48.822;9.062;2024-03-17T08:44:57;6.65;;;5.05;;
5341;SDS011;2693;48.822;9.062;2024-03-17T08:47:22;7.50;;;5.15;;
5341;SDS011;2693;48.822;9.062;2024-03-17T08:49:50;6.47;;;4.85;;
5341;SDS011;2693;48.822;9.062;2024-03-17T08:52:16;6.63;;;4.85;;
5341;SDS011;2693;48.822;9.062;2024-03-17T08:54:41;8.90;;;5.18;;
5341;SDS011;2693;48.822;9.062;2024-03-17T08:57:10;6.22;;;5.07;;
5341;SDS011;2693;48.822;9.062;2024-03-17T08:59:36;7.10;;;5.43;;
5341;SDS011;2693;48.822;9.062;2024-03-17T09:02:02;7.05;;;5.72;;
5341;SDS011;2693;48.822;9.062;2024-03-17T09:04:28;6.85;;;5.35;;
5341;SDS011;2693;48.822;9.062;2024-03-17T09:06:54;11.10;;;5.60;;
5341;SDS011;2693;48.822;9.062;2024-03-17T09:09:21;8.52;;;5.70;;
5341;SDS011;2693;48.822;9.062;2024-03-17T09:11:46;6.90;;;5.45;;
5341;SDS011;2693;48.822;9.062;2024-03-17T09:14:12;8.35;;;5.68;;
5341;SDS011;2693;48.822;9.062;2024-03-17T09:16:37;8.27;;;5.65;;
5341;SDS011;2693;48.822;9.062;2024-03-17T09:19:02;6.25;;;5.53;;
5341;SDS011;2693;48.822;9.062;2024-03-17T09:21:28;8.05;;;5.80;;
5341;SDS011;2693;48.822;9.062;2024-03-17T09:23:53;7.93;;;6.03;;
5341;SDS011;2693;48.822;9.062;2024-03-17T09:26:19;7.10;;;6.32;;
5341;SDS011;2693;48.822;9.062;2024-03-17T09:28:44;6.88;;;5.60;;
5341;SDS011;2693;48.822;9.062;2024-03-17T09:31:10;7.35;;;5.80;;
5341;SDS011;2693;48.822;9.062;2024-03-17T09:33:37;9.15;;;6.47;;
5341;SDS011;2693;48.822;9.062;2024-03-17T09:38:36;6.25;;;5.65;;
5341;SDS011;2693;48.822;9.062;2024-03-17T09:41:01;8.43;;;6.43;;
5341;SDS011;2693;48.822;9.062;2024-03-17T09:43:28;7.15;;;5.93;;
5341;SDS011;2693;48.822;9.062;2024-03-17T09:45:54;7.32;;;5.78;;
5341;SDS011;2693;48.822;9.062;2024-03-17T09:48:23;7.30;;;5.93;;
5341;SDS011;2693;48.822;9.062;2024-03-17T09:50:53;7.05;;;5.85;;
5341;SDS011;2693;48.822;9.062;2024-03-17T09:53:24;7.07;;;6.03;;
5341;SDS011;2693;48.822;9.062;2024-03-17T09:55:57;8.35;;;6.03;;
5341;SDS011;2693;48.822;9.062;2024-03-17T09:58:25;6.82;;;5.60;;
5341;SDS011;2693;48.822;9.062;2024-03-17T10:00:51;7.05;;;6.32;;
5341;SDS011;2693;48.822;9.062;2024-03-17T10:06:09;8.07;;;6.00;;
5341;SDS011;2693;48.822;9.062;2024-03-17T10:08:40;6.00;;;5.13;;
5341;SDS011;2693;48.822;9.062;2024-03-17T10:11:10;6.32;;;5.72;;
5341;SDS011;2693;48.822;9.062;2024-03-17T10:13:36;6.05;;;5.15;;
5341;SDS011;2693;48.822;9.062;2024-03-17T10:16:01;5.63;;;4.82;;
5341;SDS011;2693;48.822;9.062;2024-03-17T10:18:27;5.47;;;4.38;;
5341;SDS011;2693;48.822;9.062;2024-03-17T10:20:52;5.13;;;4.18;;
5341;SDS011;2693;48.822;9.062;2024-03-17T10:23:21;4.93;;;4.05;;
5341;SDS011;2693;48.822;9.062;2024-03-17T10:25:47;4.22;;;3.65;;
5341;SDS011;2693;48.822;9.062;2024-03-17T10:28:14;4.95;;;4.15;;
5341;SDS011;2693;48.822;9.062;2024-03-17T10:30:40;6.22;;;4.28;;
5341;SDS011;2693;48.822;9.062;2024-03-17T10:33:19;5.22;;;3.85;;
5341;SDS011;2693;48.822;9.062;2024-03-17T10:35:50;5.30;;;4.32;;
5341;SDS011;2693;48.822;9.062;2024-03-17T10:38:15;6.32;;;4.28;;
5341;SDS011;2693;48.822;9.062;2024-03-17T10:40:41;8.07;;;3.65;;
5341;SDS011;2693;48.822;9.062;2024-03-17T10:43:07;4.40;;;3.92;;
5341;SDS011;2693;48.822;9.062;2024-03-17T10:45:33;5.13;;;2.85;;
5341;SDS011;2693;48.822;9.062;2024-03-17T10:48:03;4.72;;;3.72;;
5341;SDS011;2693;48.822;9.062;2024-03-17T10:50:33;4.50;;;3.90;;
5341;SDS011;2693;48.822;9.062;2024-03-17T10:53:01;4.30;;;3.90;;
5341;SDS011;2693;48.822;9.062;2024-03-17T10:55:42;4.15;;;3.50;;
5341;SDS011;2693;48.822;9.062;2024-03-17T10:58:20;3.95;;;3.13;;
5341;SDS011;2693;48.822;9.062;2024-03-17T11:00:58;2.72;;;2.40;;
5341;SDS011;2693;48.822;9.062;2024-03-17T11:03:26;2.85;;;2.50;;
5341;SDS011;2693;48.822;9.062;2024-03-17T11:05:51;3.40;;;3.08;;
5341;SDS011;2693;48.822;9.062;2024-03-17T11:08:17;4.18;;;3.70;;
5341;SDS011;2693;48.822;9.062;2024-03-17T11:10:50;5.43;;;3.40;;
5341;SDS011;2693;48.822;9.062;2024-03-17T11:13:23;4.93;;;3.30;;
5341;SDS011;2693;48.822;9.062;2024-03-17T11:15:50;4.30;;;3.67;;
5341;SDS011;2693;48.822;9.062;2024-03-17T11:21:00;6.25;;;3.97;;
5341;SDS011;2693;48.822;9.062;2024-03-17T11:23:33;5.65;;;3.75;;
5341;SDS011;2693;48.822;9.062;2024-03-17T11:26:00;4.65;;;3.47;;
5341;SDS011;2693;48.822;9.062;2024-03-17T11:31:06;4.88;;;3.30;;
5341;SDS011;2693;48.822;9.062;2024-03-17T11:34:25;5.38;;;3.55;;
5341;SDS011;2693;48.822;9.062;2024-03-17T11:36:51;5.03;;;3.35;;
5341;SDS011;2693;48.822;9.062;2024-03-17T11:39:18;4.57;;;3.15;;
5341;SDS011;2693;48.822;9.062;2024-03-17T11:41:49;4.28;;;3.28;;
5341;SDS011;2693;48.822;9.062;2024-03-17T11:46:43;3.33;;;2.67;;
5341;SDS011;2693;48.822;9.062;2024-03-17T11:49:19;3.80;;;2.22;;
5341;SDS011;2693;48.822;9.062;2024-03-17T11:51:50;4.70;;;3.50;;
5341;SDS011;2693;48.822;9.062;2024-03-17T11:54:17;3.78;;;3.05;;
5341;SDS011;2693;48.822;9.062;2024-03-17T11:56:51;4.00;;;3.30;;
5341;SDS011;2693;48.822;9.062;2024-03-17T11:59:17;4.65;;;3.20;;
5341;SDS011;2693;48.822;9.062;2024-03-17T12:01:45;4.03;;;3.15;;
5341;SDS011;2693;48.822;9.062;2024-03-17T12:04:12;4.82;;;3.60;;
5341;SDS011;2693;48.822;9.062;2024-03-17T12:06:38;4.38;;;3.50;;
5341;SDS011;2693;48.822;9.062;2024-03-17T12:11:45;5.25;;;3.47;;
5341;SDS011;2693;48.822;9.062;2024-03-17T12:14:19;4.10;;;3.40;;
5341;SDS011;2693;48.822;9.062;2024-03-17T12:16:48;4.40;;;2.95;;
5341;SDS011;2693;48.822;9.062;2024-03-17T12:19:15;4.30;;;3.13;;
5341;SDS011;2693;48.822;9.062;2024-03-17T12:21:48;5.32;;;3.45;;
5341;SDS011;2693;48.822;9.062;2024-03-17T12:24:19;6.82;;;3.80;;
5341;SDS011;2693;48.822;9.062;2024-03-17T12:26:48;5.97;;;2.72;;
5341;SDS011;2693;48.822;9.062;2024-03-17T12:32:09;3.92;;;2.42;;
5341;SDS011;2693;48.822;9.062;2024-03-17T12:34:43;2.42;;;2.03;;
5341;SDS011;2693;48.822;9.062;2024-03-17T12:37:12;4.68;;;3.60;;
5341;SDS011;2693;48.822;9.062;2024-03-17T12:39:41;4.10;;;3.38;;
5341;SDS011;2693;48.822;9.062;2024-03-17T12:42:08;3.38;;;3.00;;
5341;SDS011;2693;48.822;9.062;2024-03-17T12:44:40;4.45;;;3.03;;
5341;SDS011;2693;48.822;9.062;2024-03-17T12:47:17;4.25;;;3.40;;
5341;SDS011;2693;48.822;9.062;2024-03-17T12:49:55;3.35;;;2.60;;
5341;SDS011;2693;48.822;9.062;2024-03-17T12:57:45;3.55;;;2.72;;
5341;SDS011;2693;48.822;9.062;2024-03-17T13:00:32;3.33;;;2.70;;
5341;SDS011;2693;48.822;9.062;2024-03-17T13:03:02;4.63;;;2.63;;
5341;SDS011;2693;48.822;9.062;2024-03-17T13:05:29;4.82;;;3.28;;
5341;SDS011;2693;48.822;9.062;2024-03-17T13:07:56;4.25;;;3.08;;
5341;SDS011;2693;48.822;9.062;2024-03-17T13:10:22;4.10;;;3.08;;
5341;SDS011;2693;48.822;9.062;2024-03-17T13:12:58;3.85;;;3.08;;
5341;SDS011;2693;48.822;9.062;2024-03-17T13:15:28;3.40;;;3.00;;
5341;SDS011;2693;48.822;9.062;2024-03-17T13:17:58;4.47;;;3.20;;
5341;SDS011;2693;48.822;9.062;2024-03-17T13:20:24;4.68;;;3.25;;
5341;SDS011;2693;48.822;9.062;2024-03-17T13:22:49;4.65;;;3.45;;
5341;SDS011;2693;48.822;9.062;2024-03-17T13:25:15;3.00;;;2.33;;
5341;SDS011;2693;48.822;9.062;2024-03-17T13:27:44;5.22;;;3.63;;
5341;SDS011;2693;48.822;9.062;2024-03-17T13:30:13;4.80;;;3.25;;
5341;SDS011;2693;48.822;9.062;2024-03-17T13:32:39;3.50;;;2.95;;
5341;SDS011;2693;48.822;9.062;2024-03-17T13:35:06;3.55;;;2.50;;
5341;SDS011;2693;48.822;9.062;2024-03-17T13:37:33;5.03;;;3.20;;
5341;SDS011;2693;48.822;9.062;2024-03-17T13:39:59;4.03;;;3.13;;
5341;SDS011;2693;48.822;9.062;2024-03-17T13:42:27;4.63;;;2.47;;
5341;SDS011;2693;48.822;9.062;2024-03-17T13:44:53;5.07;;;2.60;;
5341;SDS011;2693;48.822;9.062;2024-03-17T13:47:18;3.65;;;3.08;;
5341;SDS011;2693;48.822;9.062;2024-03-17T13:49:43;6.13;;;2.70;;
5341;SDS011;2693;48.822;9.062;2024-03-17T13:52:09;3.30;;;2.30;;
5341;SDS011;2693;48.822;9.062;2024-03-17T13:54:34;3.65;;;2.83;;
5341;SDS011;2693;48.822;9.062;2024-03-17T13:56:59;4.80;;;2.58;;
5341;SDS011;2693;48.822;9.062;2024-03-17T13:59:27;3.40;;;2.75;;
5341;SDS011;2693;48.822;9.062;2024-03-17T14:01:52;3.50;;;2.33;;
5341;SDS011;2693;48.822;9.062;2024-03-17T14:04:17;3.55;;;2.47;;
5341;SDS011;2693;48.822;9.062;2024-03-17T14:06:44;2.80;;;2.50;;
5341;SDS011;2693;48.822;9.062;2024-03-17T14:09:10;2.47;;;2.28;;
5341;SDS011;2693;48.822;9.062;2024-03-17T14:11:37;3.45;;;2.50;;
5341;SDS011;2693;48.822;9.062;2024-03-17T14:14:03;4.72;;;3.13;;
5341;SDS011;2693;48.822;9.062;2024-03-17T14:16:31;3.42;;;2.40;;
5341;SDS011;2693;48.822;9.062;2024-03-17T14:19:00;3.90;;;2.22;;
5341;SDS011;2693;48.822;9.062;2024-03-17T14:21:26;4.75;;;2.88;;
5341;SDS011;2693;48.822;9.062;2024-03-17T14:23:52;3.38;;;2.70;;
5341;SDS011;2693;48.822;9.062;2024-03-17T14:26:18;2.85;;;2.17;;
5341;SDS011;2693;48.822;9.062;2024-03-17T14:28:43;3.72;;;2.95;;
5341;SDS011;2693;48.822;9.062;2024-03-17T14:31:08;4.20;;;2.40;;
5341;SDS011;2693;48.822;9.062;2024-03-17T14:33:34;3.40;;;2.60;;
5341;SDS011;2693;48.822;9.062;2024-03-17T14:35:59;2.45;;;1.92;;
5341;SDS011;2693;48.822;9.062;2024-03-17T14:38:25;4.22;;;2.38;;
5341;SDS011;2693;48.822;9.062;2024-03-17T14:40:51;3.80;;;2.15;;
5341;SDS011;2693;48.822;9.062;2024-03-17T14:43:17;4.95;;;2.30;;
5341;SDS011;2693;48.822;9.062;2024-03-17T14:45:42;2.78;;;2.25;;
5341;SDS011;2693;48.822;9.062;2024-03-17T14:48:08;2.97;;;2.33;;
5341;SDS011;2693;48.822;9.062;2024-03-17T14:50:36;2.65;;;2.38;;
5341;SDS011;2693;48.822;9.062;2024-03-17T14:53:02;5.45;;;2.70;;
5341;SDS011;2693;48.822;9.062;2024-03-17T14:55:27;4.00;;;2.80;;
5341;SDS011;2693;48.822;9.062;2024-03-17T14:57:53;4.00;;;2.72;;
5341;SDS011;2693;48.822;9.062;2024-03-17T15:00:19;3.15;;;2.75;;
5341;SDS011;2693;48.822;9.062;2024-03-17T15:02:45;2.72;;;2.05;;
5341;SDS011;2693;48.822;9.062;2024-03-17T15:05:12;4.05;;;3.35;;
5341;SDS011;2693;48.822;9.062;2024-03-17T15:07:39;3.30;;;2.78;;
5341;SDS011;2693;48.822;9.062;2024-03-17T15:10:05;3.97;;;2.90;;
5341;SDS011;2693;48.822;9.062;2024-03-17T15:12:31;3.63;;;2.40;;
5341;SDS011;2693;48.822;9.062;2024-03-17T15:14:57;3.22;;;2.67;;
5341;SDS011;2693;48.822;9.062;2024-03-17T15:17:22;3.80;;;2.70;;
5341;SDS011;2693;48.822;9.062;2024-03-17T15:19:47;3.65;;;2.45;;
5341;SDS011;2693;48.822;9.062;2024-03-17T15:22:13;4.95;;;3.10;;
5341;SDS011;2693;48.822;9.062;2024-03-17T15:24:38;4.25;;;2.38;;
5341;SDS011;2693;48.822;9.062;2024-03-17T15:27:04;4.05;;;2.20;;
5341;SDS011;2693;48.822;9.062;2024-03-17T15:29:30;4.15;;;2.50;;
5341;SDS011;2693;48.822;9.062;2024-03-17T15:31:55;3.42;;;1.80;;
5341;SDS011;2693;48.822;9.062;2024-03-17T15:34:22;3.92;;;2.72;;
5341;SDS011;2693;48.822;9.062;2024-03-17T15:36:47;3.13;;;1.90;;
5341;SDS011;2693;48.822;9.062;2024-03-17T15:39:14;3.63;;;2.35;;